createdAt,value
2022-08-19T00:01:52.683Z,84.80
2022-08-19T00:04:28.718Z,84.90
2022-08-19T00:07:10.971Z,84.80
2022-08-19T00:09:42.920Z,85.00
2022-08-19T00:12:13.556Z,85.10
2022-08-19T00:14:45.797Z,85.00
2022-08-19T00:17:24.938Z,85.10
2022-08-19T00:19:55.034Z,85.10
2022-08-19T00:22:39.024Z,85.10
2022-08-19T00:25:30.990Z,85.10
2022-08-19T00:28:07.797Z,85.10
2022-08-19T00:30:42.913Z,85.10
2022-08-19T00:33:15.755Z,85.10
2022-08-19T00:35:46.091Z,85.20
2022-08-19T00:38:37.551Z,85.20
2022-08-19T00:41:20.454Z,85.10
2022-08-19T00:44:02.671Z,85.00
2022-08-19T00:46:36.270Z,85.00
2022-08-19T00:49:16.107Z,85.10
2022-08-19T00:51:55.012Z,85.00
2022-08-19T00:54:31.182Z,85.00
2022-08-19T00:57:24.386Z,85.00
2022-08-19T01:00:02.422Z,85.00
2022-08-19T01:02:34.789Z,85.10
2022-08-19T01:08:03.388Z,85.10
2022-08-19T01:10:51.216Z,85.20
2022-08-19T01:13:25.479Z,85.20
2022-08-19T01:16:00.932Z,85.20
2022-08-19T01:18:34.430Z,85.30
2022-08-19T01:21:11.201Z,85.30
2022-08-19T01:24:13.243Z,85.10
2022-08-19T01:26:47.685Z,85.20
2022-08-19T01:29:20.112Z,85.20
2022-08-19T01:31:56.088Z,85.20
2022-08-19T01:34:33.389Z,85.30
2022-08-19T01:37:14.321Z,85.40
2022-08-19T01:40:24.473Z,85.40
2022-08-19T01:42:55.540Z,85.30
2022-08-19T01:45:36.000Z,85.30
2022-08-19T01:48:10.742Z,85.10
2022-08-19T01:50:51.275Z,85.20
2022-08-19T01:53:21.207Z,85.20
2022-08-19T01:55:52.630Z,85.30
2022-08-19T01:58:29.274Z,85.30
2022-08-19T02:00:57.510Z,85.30
2022-08-19T02:03:27.465Z,85.30
2022-08-19T02:06:07.199Z,85.30
2022-08-19T02:08:44.585Z,85.20
2022-08-19T02:11:45.324Z,85.20
2022-08-19T02:14:14.361Z,85.30
2022-08-19T02:16:46.286Z,85.30
2022-08-19T02:19:17.136Z,85.20
2022-08-19T02:22:02.762Z,85.20
2022-08-19T02:24:37.969Z,85.40
2022-08-19T02:27:09.705Z,85.30
2022-08-19T02:29:40.822Z,85.30
2022-08-19T02:32:11.625Z,85.30
2022-08-19T02:34:40.460Z,85.40
2022-08-19T02:37:31.165Z,85.40
2022-08-19T02:40:03.261Z,85.40
2022-08-19T02:42:44.393Z,85.50
2022-08-19T02:45:15.153Z,85.50
2022-08-19T02:47:44.801Z,85.60
2022-08-19T02:50:13.938Z,85.70
2022-08-19T02:52:42.580Z,85.80
2022-08-19T02:55:11.981Z,85.90
2022-08-19T02:57:42.563Z,85.90
2022-08-19T03:00:13.794Z,85.90
2022-08-19T03:02:47.164Z,85.90
2022-08-19T03:05:17.748Z,85.90
2022-08-19T03:07:59.811Z,85.90
2022-08-19T03:10:30.809Z,86.00
2022-08-19T03:13:04.719Z,86.00
2022-08-19T03:15:35.670Z,85.90
2022-08-19T03:18:06.764Z,85.90
2022-08-19T03:20:46.133Z,86.00
2022-08-19T03:23:21.052Z,86.00
2022-08-19T03:25:58.316Z,85.90
2022-08-19T03:28:51.708Z,85.90
2022-08-19T03:31:45.626Z,85.90
2022-08-19T03:34:21.859Z,85.90
2022-08-19T03:36:52.945Z,85.80
2022-08-19T03:39:23.093Z,85.70
2022-08-19T03:42:29.207Z,85.90
2022-08-19T03:44:48.705Z,86.00
2022-08-19T03:47:27.010Z,86.00
2022-08-19T03:49:57.999Z,85.90
2022-08-19T03:52:31.580Z,85.90
2022-08-19T03:55:02.165Z,85.90
2022-08-19T03:57:32.470Z,85.80
2022-08-19T04:00:13.717Z,85.90
2022-08-19T04:02:58.812Z,85.90
2022-08-19T04:05:45.913Z,85.90
2022-08-19T04:08:23.675Z,85.90
2022-08-19T04:10:53.872Z,85.90
2022-08-19T04:13:25.717Z,85.90
2022-08-19T04:16:02.297Z,85.90
2022-08-19T04:18:36.266Z,85.90
2022-08-19T04:21:06.228Z,86.00
2022-08-19T04:23:43.071Z,86.10
2022-08-19T04:26:16.770Z,86.10
2022-08-19T04:28:46.727Z,86.20
2022-08-19T04:31:20.369Z,86.20
2022-08-19T04:33:50.269Z,86.30
2022-08-19T04:36:21.503Z,86.20
2022-08-19T04:38:50.204Z,86.40
2022-08-19T04:41:44.502Z,86.40
2022-08-19T04:44:21.640Z,86.40
2022-08-19T04:46:57.187Z,86.40
2022-08-19T04:49:29.230Z,86.40
2022-08-19T04:51:58.673Z,86.30
2022-08-19T04:54:38.420Z,86.30
2022-08-19T04:57:11.249Z,86.30
2022-08-19T04:59:43.705Z,86.30
2022-08-19T05:02:15.759Z,86.30
2022-08-19T05:04:52.569Z,86.20
2022-08-19T05:07:26.554Z,86.20
2022-08-19T05:09:58.605Z,86.20
2022-08-19T05:12:31.865Z,86.20
2022-08-19T05:15:05.483Z,86.10
2022-08-19T05:17:38.989Z,86.00
2022-08-19T05:20:35.747Z,86.00
2022-08-19T05:23:12.732Z,86.00
2022-08-19T05:26:13.476Z,86.10
2022-08-19T05:28:43.811Z,86.10
2022-08-19T05:31:12.260Z,86.10
2022-08-19T05:33:46.494Z,86.10
2022-08-19T05:36:19.076Z,86.00
2022-08-19T05:38:51.655Z,86.00
2022-08-19T05:41:22.238Z,86.00
2022-08-19T05:43:53.192Z,85.90
2022-08-19T05:46:30.702Z,85.90
2022-08-19T05:49:07.914Z,85.90
2022-08-19T05:51:43.174Z,85.80
2022-08-19T05:54:15.584Z,85.70
2022-08-19T05:56:45.564Z,85.70
2022-08-19T05:59:16.435Z,85.70
2022-08-19T06:01:51.607Z,85.70
2022-08-19T06:04:26.658Z,85.70
2022-08-19T06:06:59.349Z,85.70
2022-08-19T06:09:32.216Z,85.70
2022-08-19T06:12:06.233Z,85.60
2022-08-19T06:14:41.945Z,85.60
2022-08-19T06:17:10.978Z,85.50
2022-08-19T06:19:42.348Z,85.40
2022-08-19T06:24:57.644Z,85.30
2022-08-19T06:27:26.337Z,85.40
2022-08-19T06:29:59.389Z,85.40
2022-08-19T06:32:30.928Z,85.30
2022-08-19T06:35:18.151Z,85.20
2022-08-19T06:37:46.602Z,85.20
2022-08-19T06:40:15.095Z,85.20
2022-08-19T06:42:54.265Z,85.00
2022-08-19T06:45:34.402Z,84.90
2022-08-19T06:48:06.046Z,84.90
2022-08-19T06:50:39.429Z,84.80
2022-08-19T06:53:09.592Z,84.70
2022-08-19T06:55:47.413Z,84.80
2022-08-19T06:58:18.186Z,84.80
2022-08-19T07:00:46.477Z,84.70
2022-08-19T07:03:16.722Z,84.70
2022-08-19T07:05:56.159Z,84.60
2022-08-19T07:08:29.287Z,84.30
2022-08-19T07:11:00.629Z,84.50
2022-08-19T07:13:36.570Z,84.50
2022-08-19T07:16:10.749Z,84.40
2022-08-19T07:18:41.996Z,84.30
2022-08-19T07:21:17.991Z,84.20
2022-08-19T07:23:51.701Z,84.30
2022-08-19T07:26:27.713Z,84.30
2022-08-19T07:29:00.792Z,84.20
2022-08-19T07:31:34.395Z,84.30
2022-08-19T07:34:15.906Z,84.30
2022-08-19T07:36:50.990Z,84.30
2022-08-19T07:39:25.869Z,84.20
2022-08-19T07:41:58.789Z,84.20
2022-08-19T07:44:32.972Z,84.00
2022-08-19T07:49:47.525Z,84.00
2022-08-19T07:52:21.721Z,83.80
2022-08-19T07:54:52.184Z,83.70
2022-08-19T07:57:21.016Z,83.50
2022-08-19T07:59:51.803Z,83.30
2022-08-19T08:02:27.363Z,83.10
2022-08-19T08:05:16.155Z,82.90
2022-08-19T08:08:06.987Z,82.70
2022-08-19T08:10:42.422Z,82.50
2022-08-19T08:13:19.988Z,82.10
2022-08-19T08:15:53.596Z,81.90
2022-08-19T08:18:50.713Z,81.50
2022-08-19T08:21:21.891Z,81.40
2022-08-19T08:23:57.178Z,81.30
2022-08-19T08:26:28.066Z,81.10
2022-08-19T08:28:58.722Z,81.10
2022-08-19T08:31:30.956Z,81.20
2022-08-19T08:34:11.467Z,81.30
2022-08-19T08:36:43.621Z,81.30
2022-08-19T08:39:16.187Z,81.20
2022-08-19T08:41:53.602Z,81.20
2022-08-19T08:44:29.005Z,81.00
2022-08-19T08:47:03.351Z,81.00
2022-08-19T08:49:45.325Z,80.90
2022-08-19T08:52:22.555Z,80.70
2022-08-19T08:55:10.171Z,80.60
2022-08-19T08:57:47.828Z,80.40
2022-08-19T09:00:20.893Z,80.40
2022-08-19T09:02:51.927Z,80.40
2022-08-19T09:05:26.153Z,80.30
2022-08-19T09:08:07.325Z,80.20
2022-08-19T09:10:44.234Z,80.10
2022-08-19T09:13:28.962Z,80.00
2022-08-19T09:16:04.425Z,79.70
2022-08-19T09:18:47.687Z,79.70
2022-08-19T09:21:25.732Z,79.30
2022-08-19T09:24:05.227Z,79.20
2022-08-19T09:26:48.651Z,78.90
2022-08-19T09:29:23.007Z,78.70
2022-08-19T09:32:26.709Z,78.30
2022-08-19T09:35:03.995Z,78.00
2022-08-19T09:37:37.734Z,77.90
2022-08-19T09:40:12.078Z,77.70
2022-08-19T09:42:50.072Z,77.30
2022-08-19T09:45:23.193Z,77.60
2022-08-19T09:47:55.256Z,77.30
2022-08-19T09:50:51.966Z,76.50
2022-08-19T09:53:25.465Z,76.40
2022-08-19T09:55:56.465Z,76.10
2022-08-19T09:58:32.403Z,76.00
2022-08-19T10:01:09.740Z,75.70
2022-08-19T10:03:39.254Z,75.00
2022-08-19T10:06:19.139Z,74.20
2022-08-19T10:09:09.150Z,73.70
2022-08-19T10:11:39.679Z,73.20
2022-08-19T10:14:16.869Z,73.00
2022-08-19T10:16:45.475Z,72.80
2022-08-19T10:19:14.254Z,72.70
2022-08-19T10:21:43.775Z,72.80
2022-08-19T10:24:12.580Z,72.50
2022-08-19T10:26:46.176Z,72.50
2022-08-19T10:29:31.990Z,72.60
2022-08-19T10:32:03.129Z,72.20
2022-08-19T10:34:32.666Z,72.10
2022-08-19T10:37:02.838Z,71.70
2022-08-19T10:39:41.020Z,71.20
2022-08-19T10:42:14.155Z,71.00
2022-08-19T10:44:44.453Z,71.40
2022-08-19T10:47:24.661Z,70.70
2022-08-19T10:50:13.379Z,70.90
2022-08-19T10:52:49.910Z,71.20
2022-08-19T10:55:38.737Z,70.90
2022-08-19T10:58:12.273Z,70.70
2022-08-19T11:00:43.308Z,70.10
2022-08-19T11:03:11.777Z,69.70
2022-08-19T11:05:41.639Z,69.70
2022-08-19T11:08:22.982Z,69.60
2022-08-19T11:10:54.685Z,69.50
2022-08-19T11:13:33.435Z,69.40
2022-08-19T11:16:19.911Z,69.10
2022-08-19T11:18:59.849Z,68.90
2022-08-19T11:21:36.339Z,67.70
2022-08-19T11:24:11.550Z,68.20
2022-08-19T11:26:48.651Z,67.10
2022-08-19T11:29:17.742Z,67.20
2022-08-19T11:31:49.653Z,67.70
2022-08-19T11:34:21.685Z,67.80
2022-08-19T11:36:51.493Z,66.50
2022-08-19T11:39:22.426Z,65.80
2022-08-19T11:41:51.108Z,65.50
2022-08-19T11:44:19.448Z,65.30
2022-08-19T11:46:49.423Z,65.10
2022-08-19T11:49:19.959Z,65.40
2022-08-19T11:51:51.175Z,65.70
2022-08-19T11:54:19.561Z,65.70
2022-08-19T11:56:49.998Z,65.80
2022-08-19T11:59:18.213Z,65.70
2022-08-19T12:01:46.500Z,65.60
2022-08-19T12:04:16.095Z,65.30
2022-08-19T12:06:46.857Z,65.70
2022-08-19T12:09:16.491Z,65.70
2022-08-19T12:11:44.693Z,65.50
2022-08-19T12:14:16.920Z,64.60
2022-08-19T12:16:51.074Z,64.20
2022-08-19T12:19:22.726Z,63.90
2022-08-19T12:21:52.103Z,63.60
2022-08-19T12:24:24.141Z,63.40
2022-08-19T12:26:53.957Z,63.20
2022-08-19T12:29:23.954Z,62.70
2022-08-19T12:31:52.907Z,62.60
2022-08-19T12:34:22.735Z,61.80
2022-08-19T12:36:51.281Z,61.80
2022-08-19T12:39:19.668Z,61.60
2022-08-19T12:41:51.659Z,62.10
2022-08-19T12:44:31.864Z,61.30
2022-08-19T12:47:01.148Z,61.40
2022-08-19T12:49:54.353Z,61.10
2022-08-19T12:52:23.253Z,59.90
2022-08-19T12:54:54.149Z,58.80
2022-08-19T12:57:31.556Z,57.80
2022-08-19T13:00:00.767Z,57.30
2022-08-19T13:02:29.367Z,57.00
2022-08-19T13:04:59.610Z,56.50
2022-08-19T13:07:27.931Z,56.20
2022-08-19T13:09:56.061Z,55.50
2022-08-19T13:12:27.604Z,54.90
2022-08-19T13:14:55.873Z,54.70
2022-08-19T13:17:24.065Z,55.70
2022-08-19T13:19:52.524Z,55.10
2022-08-19T13:22:22.196Z,55.60
2022-08-19T13:24:50.435Z,55.30
2022-08-19T13:27:18.675Z,54.90
2022-08-19T13:30:04.468Z,54.60
2022-08-19T13:32:50.220Z,54.20
2022-08-19T13:35:19.353Z,54.10
2022-08-19T13:37:48.866Z,54.10
2022-08-19T13:40:20.159Z,53.60
2022-08-19T13:42:50.974Z,53.80
2022-08-19T13:45:21.499Z,53.80
2022-08-19T13:47:52.076Z,53.40
2022-08-19T13:50:26.569Z,53.50
2022-08-19T13:52:57.091Z,54.10
2022-08-19T13:55:26.050Z,53.00
2022-08-19T13:57:55.547Z,53.20
2022-08-19T14:00:27.542Z,52.40
2022-08-19T14:02:58.466Z,52.20
2022-08-19T14:05:29.287Z,52.20
2022-08-19T14:08:00.310Z,52.50
2022-08-19T14:10:31.854Z,51.30
2022-08-19T14:13:02.425Z,51.20
2022-08-19T14:15:31.769Z,50.60
2022-08-19T14:18:00.341Z,50.70
2022-08-19T14:20:29.056Z,50.30
2022-08-19T14:22:58.807Z,49.30
2022-08-19T14:25:29.366Z,50.20
2022-08-19T14:27:58.733Z,50.40
2022-08-19T14:30:30.095Z,49.60
2022-08-19T14:33:02.994Z,49.80
2022-08-19T14:35:33.574Z,49.20
2022-08-19T14:38:03.817Z,50.20
2022-08-19T14:40:32.762Z,50.50
2022-08-19T14:43:05.213Z,51.60
2022-08-19T14:45:36.594Z,51.70
2022-08-19T14:48:12.404Z,52.00
2022-08-19T14:50:48.176Z,52.10
2022-08-19T14:53:18.775Z,52.30
2022-08-19T14:55:48.039Z,52.40
2022-08-19T14:58:29.783Z,52.80
2022-08-19T15:01:00.547Z,53.30
2022-08-19T15:03:29.396Z,53.70
2022-08-19T15:05:58.593Z,53.70
2022-08-19T15:08:29.843Z,53.90
2022-08-19T15:10:59.167Z,54.30
2022-08-19T15:13:34.305Z,54.50
2022-08-19T15:16:03.079Z,54.60
2022-08-19T15:18:31.331Z,54.90
2022-08-19T15:20:59.989Z,55.00
2022-08-19T15:23:29.787Z,55.00
2022-08-19T15:25:58.212Z,55.30
2022-08-19T15:28:27.766Z,55.60
2022-08-19T15:30:56.041Z,55.70
2022-08-19T15:33:24.268Z,55.70
2022-08-19T15:35:52.666Z,55.90
2022-08-19T15:38:22.151Z,55.90
2022-08-19T15:41:26.053Z,55.90
2022-08-19T15:43:59.590Z,55.90
2022-08-19T15:46:34.995Z,55.90
2022-08-19T15:49:12.053Z,56.00
2022-08-19T15:51:46.612Z,56.20
2022-08-19T15:54:19.172Z,56.20
2022-08-19T15:57:09.196Z,56.20
2022-08-19T16:00:03.399Z,56.20
2022-08-19T16:02:53.467Z,56.00
2022-08-19T16:05:49.510Z,55.80
2022-08-19T16:08:21.400Z,55.90
2022-08-19T16:10:53.069Z,55.90
2022-08-19T16:13:48.069Z,56.10
2022-08-19T16:19:02.736Z,56.00
2022-08-19T16:21:47.239Z,56.10
2022-08-19T16:24:18.718Z,56.00
2022-08-19T16:26:53.017Z,56.00
2022-08-19T16:29:39.361Z,56.40
2022-08-19T16:32:12.871Z,56.50
2022-08-19T16:34:51.067Z,56.90
2022-08-19T16:37:33.942Z,56.90
2022-08-19T16:40:06.073Z,56.90
2022-08-19T16:42:43.362Z,56.80
2022-08-19T16:45:31.940Z,56.70
2022-08-19T16:48:09.574Z,56.20
2022-08-19T16:50:49.480Z,56.30
2022-08-19T16:53:23.995Z,56.00
2022-08-19T16:55:59.927Z,55.90
2022-08-19T16:58:36.504Z,55.60
2022-08-19T17:01:25.394Z,55.40
2022-08-19T17:03:56.214Z,54.80
2022-08-19T17:06:29.818Z,54.80
2022-08-19T17:09:03.032Z,54.60
2022-08-19T17:11:35.863Z,55.00
2022-08-19T17:14:08.561Z,54.80
2022-08-19T17:16:54.535Z,54.70
2022-08-19T17:19:24.761Z,54.70
2022-08-19T17:22:09.930Z,54.30
2022-08-19T17:24:48.787Z,54.60
2022-08-19T17:27:20.885Z,54.60
2022-08-19T17:29:51.455Z,54.50
2022-08-19T17:32:30.043Z,54.50
2022-08-19T17:35:00.506Z,54.80
2022-08-19T17:37:34.265Z,54.60
2022-08-19T17:40:11.589Z,54.60
2022-08-19T17:42:56.887Z,54.30
2022-08-19T17:45:37.529Z,54.70
2022-08-19T17:48:24.442Z,54.50
2022-08-19T17:51:04.103Z,55.00
2022-08-19T17:53:36.664Z,55.40
2022-08-19T17:56:06.612Z,55.60
2022-08-19T17:58:45.099Z,55.50
2022-08-19T18:01:27.003Z,55.70
2022-08-19T18:04:04.917Z,56.00
2022-08-19T18:09:24.052Z,56.20
2022-08-19T18:12:05.088Z,56.30
2022-08-19T18:14:47.740Z,56.30
2022-08-19T18:17:23.561Z,56.40
2022-08-19T18:19:55.338Z,56.40
2022-08-19T18:25:14.922Z,56.70
2022-08-19T18:27:59.919Z,56.90
2022-08-19T18:30:36.447Z,57.20
2022-08-19T18:33:16.290Z,57.70
2022-08-19T18:36:03.923Z,57.90
2022-08-19T18:38:56.460Z,58.40
2022-08-19T18:41:43.449Z,58.90
2022-08-19T18:44:29.207Z,59.30
2022-08-19T18:47:31.059Z,59.60
2022-08-19T18:50:04.749Z,60.00
2022-08-19T18:52:40.820Z,60.40
2022-08-19T18:55:26.650Z,60.80
2022-08-19T18:57:57.455Z,61.10
2022-08-19T19:00:26.809Z,61.70
2022-08-19T19:02:56.256Z,61.90
2022-08-19T19:05:24.619Z,62.30
2022-08-19T19:08:01.978Z,62.70
2022-08-19T19:10:33.003Z,63.20
2022-08-19T19:13:02.360Z,63.50
2022-08-19T19:15:30.841Z,63.90
2022-08-19T19:18:14.960Z,64.20
2022-08-19T19:20:52.865Z,64.70
2022-08-19T19:23:32.377Z,65.00
2022-08-19T19:26:09.092Z,65.30
2022-08-19T19:28:45.642Z,65.60
2022-08-19T19:31:19.674Z,65.80
2022-08-19T19:33:49.888Z,66.20
2022-08-19T19:36:24.585Z,66.60
2022-08-19T19:38:58.961Z,67.00
2022-08-19T19:41:35.847Z,67.30
2022-08-19T19:44:30.884Z,67.60
2022-08-19T19:47:04.570Z,67.80
2022-08-19T19:49:52.549Z,68.20
2022-08-19T19:52:34.489Z,68.30
2022-08-19T19:55:21.687Z,68.50
2022-08-19T19:57:53.690Z,68.60
2022-08-19T20:00:33.089Z,68.90
2022-08-19T20:03:01.849Z,69.10
2022-08-19T20:05:32.274Z,69.30
2022-08-19T20:08:22.984Z,69.50
2022-08-19T20:13:43.766Z,69.70
2022-08-19T20:16:14.567Z,69.80
2022-08-19T20:18:49.846Z,69.90
2022-08-19T20:21:24.120Z,70.00
2022-08-19T20:24:09.301Z,70.00
2022-08-19T20:26:48.763Z,70.10
2022-08-19T20:29:38.274Z,70.30
2022-08-19T20:32:17.425Z,70.30
2022-08-19T20:34:49.629Z,70.40
2022-08-19T20:37:21.396Z,70.40
2022-08-19T20:39:56.147Z,70.50
2022-08-19T20:42:26.871Z,70.50
2022-08-19T20:44:56.938Z,70.50
2022-08-19T20:47:32.992Z,70.50
2022-08-19T20:50:06.133Z,70.60
2022-08-19T20:52:39.977Z,70.70
2022-08-19T20:55:12.861Z,70.60
2022-08-19T20:57:47.553Z,70.70
2022-08-19T21:00:24.978Z,70.80
2022-08-19T21:02:54.760Z,70.80
2022-08-19T21:08:12.553Z,70.90
2022-08-19T21:10:51.026Z,71.00
2022-08-19T21:13:35.993Z,71.00
2022-08-19T21:16:09.122Z,71.20
2022-08-19T21:18:45.187Z,71.20
2022-08-19T21:21:24.595Z,71.10
2022-08-19T21:26:41.970Z,71.30
2022-08-19T21:29:25.870Z,71.40
2022-08-19T21:31:58.010Z,71.60
2022-08-19T21:34:29.882Z,71.60
2022-08-19T21:36:58.120Z,71.70
2022-08-19T21:39:35.714Z,71.80
2022-08-19T21:42:06.297Z,71.80
2022-08-19T21:44:40.843Z,71.90
2022-08-19T21:47:27.180Z,71.90
2022-08-19T21:49:59.996Z,71.90
2022-08-19T21:52:32.205Z,72.00
2022-08-19T21:55:01.432Z,72.00
2022-08-19T21:57:37.212Z,72.20
2022-08-19T22:00:32.953Z,72.30
2022-08-19T22:03:07.737Z,72.50
2022-08-19T22:05:36.567Z,72.60
2022-08-19T22:08:09.851Z,72.70
2022-08-19T22:10:40.317Z,72.80
2022-08-19T22:13:17.644Z,72.90
2022-08-19T22:15:55.353Z,72.90
2022-08-19T22:18:44.494Z,73.10
2022-08-19T22:21:13.250Z,73.20
2022-08-19T22:23:49.467Z,73.40
2022-08-19T22:26:26.801Z,73.40
2022-08-19T22:29:04.953Z,73.50
2022-08-19T22:31:42.259Z,73.90
2022-08-19T22:34:13.480Z,74.00
2022-08-19T22:36:44.093Z,74.00
2022-08-19T22:39:15.900Z,74.10
2022-08-19T22:41:51.920Z,74.30
2022-08-19T22:44:23.772Z,74.60
2022-08-19T22:46:55.543Z,74.80
2022-08-19T22:49:26.493Z,75.00
2022-08-19T22:52:12.148Z,75.10
2022-08-19T22:54:40.632Z,75.30
2022-08-19T22:57:11.170Z,75.50
2022-08-19T22:59:39.685Z,75.50
2022-08-19T23:02:10.360Z,75.60
2022-08-19T23:04:39.022Z,75.60
2022-08-19T23:07:07.656Z,75.70
2022-08-19T23:09:35.812Z,75.70
2022-08-19T23:12:05.641Z,75.90
2022-08-19T23:14:34.380Z,75.90
2022-08-19T23:17:02.605Z,76.00
2022-08-19T23:19:32.550Z,76.10
2022-08-19T23:22:01.510Z,76.20
2022-08-19T23:24:29.759Z,76.20
2022-08-19T23:27:15.602Z,76.20
2022-08-19T23:30:01.254Z,76.40
2022-08-19T23:32:29.502Z,76.60
2022-08-19T23:34:59.620Z,76.60
2022-08-19T23:37:28.011Z,76.70
2022-08-19T23:39:56.309Z,76.80
2022-08-19T23:42:26.081Z,76.90
2022-08-19T23:44:54.297Z,76.90
2022-08-19T23:47:23.748Z,77.00
2022-08-19T23:49:51.931Z,77.10
2022-08-19T23:52:21.677Z,77.10
2022-08-19T23:54:49.878Z,77.40
2022-08-19T23:57:18.149Z,77.40
2022-08-19T23:59:46.475Z,77.50
